sensor_id;sensor_type;location;lat;lon;timestamp;P1;durP1;ratioP1;P2;durP2;ratioP2
19032;SDS011;9649;51.042;13.804;2023-03-08T00:02:38;1.63;;;1.40;;
19032;SDS011;9649;51.042;13.804;2023-03-08T00:07:40;2.03;;;1.70;;
19032;SDS011;9649;51.042;13.804;2023-03-08T00:12:44;2.90;;;1.70;;
19032;SDS011;9649;51.042;13.804;2023-03-08T00:17:47;3.20;;;2.17;;
19032;SDS011;9649;51.042;13.804;2023-03-08T00:22:50;5.80;;;2.30;;
19032;SDS011;9649;51.042;13.804;2023-03-08T00:27:54;4.03;;;2.30;;
19032;SDS011;9649;51.042;13.804;2023-03-08T00:32:56;3.93;;;3.00;;
19032;SDS011;9649;51.042;13.804;2023-03-08T00:37:59;3.70;;;2.80;;
19032;SDS011;9649;51.042;13.804;2023-03-08T00:43:03;4.10;;;2.73;;
19032;SDS011;9649;51.042;13.804;2023-03-08T00:48:06;2.53;;;1.70;;
19032;SDS011;9649;51.042;13.804;2023-03-08T00:53:09;2.00;;;1.63;;
19032;SDS011;9649;51.042;13.804;2023-03-08T00:58:13;3.70;;;1.40;;
19032;SDS011;9649;51.042;13.804;2023-03-08T01:03:16;4.03;;;1.60;;
19032;SDS011;9649;51.042;13.804;2023-03-08T01:08:20;2.63;;;2.20;;
19032;SDS011;9649;51.042;13.804;2023-03-08T01:13:27;4.43;;;2.50;;
19032;SDS011;9649;51.042;13.804;2023-03-08T01:18:31;2.70;;;2.20;;
19032;SDS011;9649;51.042;13.804;2023-03-08T01:23:34;4.13;;;2.90;;
19032;SDS011;9649;51.042;13.804;2023-03-08T01:28:38;6.30;;;3.90;;
19032;SDS011;9649;51.042;13.804;2023-03-08T01:33:41;7.40;;;3.90;;
19032;SDS011;9649;51.042;13.804;2023-03-08T01:38:44;6.10;;;4.17;;
19032;SDS011;9649;51.042;13.804;2023-03-08T01:43:49;7.93;;;3.80;;
19032;SDS011;9649;51.042;13.804;2023-03-08T01:48:54;4.43;;;3.13;;
19032;SDS011;9649;51.042;13.804;2023-03-08T01:54:03;7.50;;;3.80;;
19032;SDS011;9649;51.042;13.804;2023-03-08T01:59:10;5.00;;;3.40;;
19032;SDS011;9649;51.042;13.804;2023-03-08T02:04:14;6.40;;;3.00;;
19032;SDS011;9649;51.042;13.804;2023-03-08T02:09:17;4.87;;;2.60;;
19032;SDS011;9649;51.042;13.804;2023-03-08T02:14:22;3.60;;;2.40;;
19032;SDS011;9649;51.042;13.804;2023-03-08T02:19:27;4.87;;;2.97;;
19032;SDS011;9649;51.042;13.804;2023-03-08T02:24:36;6.80;;;3.13;;
19032;SDS011;9649;51.042;13.804;2023-03-08T02:29:39;5.13;;;2.53;;
19032;SDS011;9649;51.042;13.804;2023-03-08T02:34:43;5.53;;;3.03;;
19032;SDS011;9649;51.042;13.804;2023-03-08T02:39:48;5.20;;;2.90;;
19032;SDS011;9649;51.042;13.804;2023-03-08T02:44:50;4.73;;;2.43;;
19032;SDS011;9649;51.042;13.804;2023-03-08T02:49:53;3.80;;;2.70;;
19032;SDS011;9649;51.042;13.804;2023-03-08T02:54:57;4.30;;;3.00;;
19032;SDS011;9649;51.042;13.804;2023-03-08T03:00:00;4.43;;;3.10;;
19032;SDS011;9649;51.042;13.804;2023-03-08T03:05:03;4.53;;;3.20;;
19032;SDS011;9649;51.042;13.804;2023-03-08T03:10:14;4.93;;;3.43;;
19032;SDS011;9649;51.042;13.804;2023-03-08T03:15:22;7.10;;;3.80;;
19032;SDS011;9649;51.042;13.804;2023-03-08T03:20:31;5.13;;;3.80;;
19032;SDS011;9649;51.042;13.804;2023-03-08T03:25:55;5.00;;;3.40;;
19032;SDS011;9649;51.042;13.804;2023-03-08T03:37:02;6.37;;;3.90;;
19032;SDS011;9649;51.042;13.804;2023-03-08T03:42:19;6.93;;;4.13;;
19032;SDS011;9649;51.042;13.804;2023-03-08T03:47:30;8.60;;;4.13;;
19032;SDS011;9649;51.042;13.804;2023-03-08T03:52:39;6.33;;;4.10;;
19032;SDS011;9649;51.042;13.804;2023-03-08T03:57:53;9.97;;;4.80;;
19032;SDS011;9649;51.042;13.804;2023-03-08T04:03:02;9.17;;;5.53;;
19032;SDS011;9649;51.042;13.804;2023-03-08T04:08:08;9.57;;;5.37;;
19032;SDS011;9649;51.042;13.804;2023-03-08T04:13:15;10.33;;;5.60;;
19032;SDS011;9649;51.042;13.804;2023-03-08T04:18:22;9.60;;;5.30;;
19032;SDS011;9649;51.042;13.804;2023-03-08T04:23:24;8.70;;;5.13;;
19032;SDS011;9649;51.042;13.804;2023-03-08T04:28:35;11.07;;;6.50;;
19032;SDS011;9649;51.042;13.804;2023-03-08T04:33:40;13.40;;;6.30;;
19032;SDS011;9649;51.042;13.804;2023-03-08T04:38:49;11.97;;;6.80;;
19032;SDS011;9649;51.042;13.804;2023-03-08T04:43:57;11.23;;;6.10;;
19032;SDS011;9649;51.042;13.804;2023-03-08T04:49:20;9.37;;;5.63;;
19032;SDS011;9649;51.042;13.804;2023-03-08T04:54:28;10.87;;;6.27;;
19032;SDS011;9649;51.042;13.804;2023-03-08T04:59:46;10.67;;;6.27;;
19032;SDS011;9649;51.042;13.804;2023-03-08T05:05:03;12.30;;;6.87;;
19032;SDS011;9649;51.042;13.804;2023-03-08T05:10:26;10.90;;;6.13;;
19032;SDS011;9649;51.042;13.804;2023-03-08T05:15:39;12.50;;;6.70;;
19032;SDS011;9649;51.042;13.804;2023-03-08T05:20:42;11.77;;;6.80;;
19032;SDS011;9649;51.042;13.804;2023-03-08T05:25:45;12.93;;;7.40;;
19032;SDS011;9649;51.042;13.804;2023-03-08T05:30:49;14.67;;;7.00;;
19032;SDS011;9649;51.042;13.804;2023-03-08T05:35:52;13.70;;;7.57;;
19032;SDS011;9649;51.042;13.804;2023-03-08T05:40:58;14.67;;;7.50;;
19032;SDS011;9649;51.042;13.804;2023-03-08T05:46:03;13.17;;;7.00;;
19032;SDS011;9649;51.042;13.804;2023-03-08T05:51:08;14.97;;;8.30;;
19032;SDS011;9649;51.042;13.804;2023-03-08T05:56:13;15.30;;;7.50;;
19032;SDS011;9649;51.042;13.804;2023-03-08T06:01:19;18.23;;;8.63;;
19032;SDS011;9649;51.042;13.804;2023-03-08T06:06:23;27.67;;;11.50;;
19032;SDS011;9649;51.042;13.804;2023-03-08T06:11:27;60.47;;;20.60;;
19032;SDS011;9649;51.042;13.804;2023-03-08T06:16:32;18.90;;;8.97;;
19032;SDS011;9649;51.042;13.804;2023-03-08T06:21:34;16.27;;;8.23;;
19032;SDS011;9649;51.042;13.804;2023-03-08T06:26:37;19.80;;;8.37;;
19032;SDS011;9649;51.042;13.804;2023-03-08T06:31:41;19.53;;;10.33;;
19032;SDS011;9649;51.042;13.804;2023-03-08T06:36:44;21.47;;;10.70;;
19032;SDS011;9649;51.042;13.804;2023-03-08T06:41:47;19.87;;;9.77;;
19032;SDS011;9649;51.042;13.804;2023-03-08T06:46:51;14.53;;;7.10;;
19032;SDS011;9649;51.042;13.804;2023-03-08T06:51:53;15.70;;;8.47;;
19032;SDS011;9649;51.042;13.804;2023-03-08T06:56:56;14.73;;;8.20;;
19032;SDS011;9649;51.042;13.804;2023-03-08T07:02:00;16.47;;;8.57;;
19032;SDS011;9649;51.042;13.804;2023-03-08T07:07:03;12.97;;;6.97;;
19032;SDS011;9649;51.042;13.804;2023-03-08T07:12:08;12.40;;;6.33;;
19032;SDS011;9649;51.042;13.804;2023-03-08T07:17:12;9.93;;;5.47;;
19032;SDS011;9649;51.042;13.804;2023-03-08T07:22:15;10.07;;;6.40;;
19032;SDS011;9649;51.042;13.804;2023-03-08T07:27:17;13.60;;;6.77;;
19032;SDS011;9649;51.042;13.804;2023-03-08T07:32:21;12.33;;;7.10;;
19032;SDS011;9649;51.042;13.804;2023-03-08T07:37:28;13.77;;;7.50;;
19032;SDS011;9649;51.042;13.804;2023-03-08T07:42:31;15.97;;;7.53;;
19032;SDS011;9649;51.042;13.804;2023-03-08T07:47:35;13.77;;;7.27;;
19032;SDS011;9649;51.042;13.804;2023-03-08T07:52:38;12.37;;;6.97;;
19032;SDS011;9649;51.042;13.804;2023-03-08T07:57:41;13.57;;;6.53;;
19032;SDS011;9649;51.042;13.804;2023-03-08T08:02:45;12.90;;;7.10;;
19032;SDS011;9649;51.042;13.804;2023-03-08T08:07:48;12.23;;;6.90;;
19032;SDS011;9649;51.042;13.804;2023-03-08T08:12:52;12.63;;;7.17;;
19032;SDS011;9649;51.042;13.804;2023-03-08T08:17:56;14.37;;;7.70;;
19032;SDS011;9649;51.042;13.804;2023-03-08T08:22:59;13.00;;;7.40;;
19032;SDS011;9649;51.042;13.804;2023-03-08T08:28:01;13.83;;;6.93;;
19032;SDS011;9649;51.042;13.804;2023-03-08T08:33:05;10.23;;;5.87;;
19032;SDS011;9649;51.042;13.804;2023-03-08T08:38:08;10.67;;;6.43;;
19032;SDS011;9649;51.042;13.804;2023-03-08T08:43:11;11.07;;;6.23;;
19032;SDS011;9649;51.042;13.804;2023-03-08T08:48:15;10.70;;;5.80;;
19032;SDS011;9649;51.042;13.804;2023-03-08T08:53:18;7.63;;;4.80;;
19032;SDS011;9649;51.042;13.804;2023-03-08T08:58:21;10.03;;;5.37;;
19032;SDS011;9649;51.042;13.804;2023-03-08T09:03:25;10.33;;;5.60;;
19032;SDS011;9649;51.042;13.804;2023-03-08T09:08:28;9.23;;;5.80;;
19032;SDS011;9649;51.042;13.804;2023-03-08T09:13:30;9.17;;;5.83;;
19032;SDS011;9649;51.042;13.804;2023-03-08T09:18:34;9.47;;;5.77;;
19032;SDS011;9649;51.042;13.804;2023-03-08T09:23:37;10.03;;;6.27;;
19032;SDS011;9649;51.042;13.804;2023-03-08T09:28:40;9.80;;;6.03;;
19032;SDS011;9649;51.042;13.804;2023-03-08T09:33:45;10.77;;;6.57;;
19032;SDS011;9649;51.042;13.804;2023-03-08T09:38:49;9.77;;;5.83;;
19032;SDS011;9649;51.042;13.804;2023-03-08T09:43:59;12.17;;;7.07;;
19032;SDS011;9649;51.042;13.804;2023-03-08T09:49:13;8.70;;;5.70;;
19032;SDS011;9649;51.042;13.804;2023-03-08T09:54:20;8.70;;;5.33;;
19032;SDS011;9649;51.042;13.804;2023-03-08T09:59:28;6.67;;;4.77;;
19032;SDS011;9649;51.042;13.804;2023-03-08T10:04:42;9.17;;;6.03;;
19032;SDS011;9649;51.042;13.804;2023-03-08T10:10:15;6.80;;;4.90;;
19032;SDS011;9649;51.042;13.804;2023-03-08T10:15:25;6.40;;;4.37;;
19032;SDS011;9649;51.042;13.804;2023-03-08T10:20:31;5.30;;;3.97;;
19032;SDS011;9649;51.042;13.804;2023-03-08T10:25:37;5.83;;;4.13;;
19032;SDS011;9649;51.042;13.804;2023-03-08T10:30:41;5.57;;;4.00;;
19032;SDS011;9649;51.042;13.804;2023-03-08T10:35:55;4.67;;;3.50;;
19032;SDS011;9649;51.042;13.804;2023-03-08T10:41:01;4.57;;;3.10;;
19032;SDS011;9649;51.042;13.804;2023-03-08T10:46:09;5.90;;;4.00;;
19032;SDS011;9649;51.042;13.804;2023-03-08T10:51:16;5.30;;;3.90;;
19032;SDS011;9649;51.042;13.804;2023-03-08T10:56:22;6.33;;;3.63;;
19032;SDS011;9649;51.042;13.804;2023-03-08T11:01:28;5.03;;;3.63;;
19032;SDS011;9649;51.042;13.804;2023-03-08T11:06:33;6.20;;;4.27;;
19032;SDS011;9649;51.042;13.804;2023-03-08T11:11:39;7.17;;;4.60;;
19032;SDS011;9649;51.042;13.804;2023-03-08T11:16:51;7.13;;;4.70;;
19032;SDS011;9649;51.042;13.804;2023-03-08T11:22:04;7.20;;;5.17;;
19032;SDS011;9649;51.042;13.804;2023-03-08T11:27:21;10.97;;;6.23;;
19032;SDS011;9649;51.042;13.804;2023-03-08T11:32:39;11.67;;;7.40;;
19032;SDS011;9649;51.042;13.804;2023-03-08T11:37:55;12.53;;;7.90;;
19032;SDS011;9649;51.042;13.804;2023-03-08T11:43:07;13.87;;;8.30;;
19032;SDS011;9649;51.042;13.804;2023-03-08T11:53:48;16.50;;;10.23;;
19032;SDS011;9649;51.042;13.804;2023-03-08T11:58:59;19.20;;;11.20;;
19032;SDS011;9649;51.042;13.804;2023-03-08T12:04:06;19.20;;;12.10;;
19032;SDS011;9649;51.042;13.804;2023-03-08T12:09:16;22.13;;;13.47;;
19032;SDS011;9649;51.042;13.804;2023-03-08T12:14:25;23.67;;;14.47;;
19032;SDS011;9649;51.042;13.804;2023-03-08T12:19:33;25.43;;;14.93;;
19032;SDS011;9649;51.042;13.804;2023-03-08T12:24:45;26.33;;;15.60;;
19032;SDS011;9649;51.042;13.804;2023-03-08T12:29:53;25.70;;;15.00;;
19032;SDS011;9649;51.042;13.804;2023-03-08T12:35:00;21.03;;;13.47;;
19032;SDS011;9649;51.042;13.804;2023-03-08T12:45:36;22.50;;;13.17;;
19032;SDS011;9649;51.042;13.804;2023-03-08T12:50:40;22.33;;;13.57;;
19032;SDS011;9649;51.042;13.804;2023-03-08T12:55:47;21.67;;;12.87;;
19032;SDS011;9649;51.042;13.804;2023-03-08T13:01:02;21.47;;;12.83;;
19032;SDS011;9649;51.042;13.804;2023-03-08T13:06:14;19.87;;;10.93;;
19032;SDS011;9649;51.042;13.804;2023-03-08T13:11:37;14.80;;;9.37;;
19032;SDS011;9649;51.042;13.804;2023-03-08T13:16:44;15.90;;;9.57;;
19032;SDS011;9649;51.042;13.804;2023-03-08T13:21:47;16.40;;;9.90;;
19032;SDS011;9649;51.042;13.804;2023-03-08T13:27:07;16.83;;;10.03;;
19032;SDS011;9649;51.042;13.804;2023-03-08T13:32:22;15.73;;;10.27;;
19032;SDS011;9649;51.042;13.804;2023-03-08T13:37:26;14.00;;;8.80;;
19032;SDS011;9649;51.042;13.804;2023-03-08T13:42:31;15.80;;;9.13;;
19032;SDS011;9649;51.042;13.804;2023-03-08T13:47:36;14.87;;;9.33;;
19032;SDS011;9649;51.042;13.804;2023-03-08T13:52:41;13.03;;;7.80;;
19032;SDS011;9649;51.042;13.804;2023-03-08T13:57:46;12.13;;;7.43;;
19032;SDS011;9649;51.042;13.804;2023-03-08T14:02:52;11.60;;;7.17;;
19032;SDS011;9649;51.042;13.804;2023-03-08T14:07:56;10.10;;;6.57;;
19032;SDS011;9649;51.042;13.804;2023-03-08T14:13:01;9.27;;;5.90;;
19032;SDS011;9649;51.042;13.804;2023-03-08T14:18:05;8.93;;;5.13;;
19032;SDS011;9649;51.042;13.804;2023-03-08T14:23:13;7.57;;;5.13;;
19032;SDS011;9649;51.042;13.804;2023-03-08T14:28:35;7.87;;;4.97;;
19032;SDS011;9649;51.042;13.804;2023-03-08T14:33:41;7.83;;;5.20;;
19032;SDS011;9649;51.042;13.804;2023-03-08T14:38:46;7.90;;;5.37;;
19032;SDS011;9649;51.042;13.804;2023-03-08T14:43:51;8.57;;;5.47;;
19032;SDS011;9649;51.042;13.804;2023-03-08T14:48:55;9.23;;;5.87;;
19032;SDS011;9649;51.042;13.804;2023-03-08T14:54:00;13.70;;;6.67;;
19032;SDS011;9649;51.042;13.804;2023-03-08T14:59:08;9.90;;;6.63;;
19032;SDS011;9649;51.042;13.804;2023-03-08T15:04:26;10.43;;;6.20;;
19032;SDS011;9649;51.042;13.804;2023-03-08T15:09:29;7.40;;;5.33;;
19032;SDS011;9649;51.042;13.804;2023-03-08T15:14:34;9.13;;;5.20;;
19032;SDS011;9649;51.042;13.804;2023-03-08T15:19:36;8.80;;;6.17;;
19032;SDS011;9649;51.042;13.804;2023-03-08T15:24:39;9.13;;;5.63;;
19032;SDS011;9649;51.042;13.804;2023-03-08T15:29:43;9.03;;;5.57;;
19032;SDS011;9649;51.042;13.804;2023-03-08T15:34:46;7.93;;;6.03;;
19032;SDS011;9649;51.042;13.804;2023-03-08T15:39:49;8.50;;;6.03;;
19032;SDS011;9649;51.042;13.804;2023-03-08T15:44:53;9.43;;;6.47;;
19032;SDS011;9649;51.042;13.804;2023-03-08T15:49:55;11.17;;;7.43;;
19032;SDS011;9649;51.042;13.804;2023-03-08T15:54:58;10.43;;;6.63;;
19032;SDS011;9649;51.042;13.804;2023-03-08T16:00:02;12.50;;;8.30;;
19032;SDS011;9649;51.042;13.804;2023-03-08T16:05:08;13.47;;;9.07;;
19032;SDS011;9649;51.042;13.804;2023-03-08T16:10:12;14.10;;;9.63;;
19032;SDS011;9649;51.042;13.804;2023-03-08T16:15:19;28.90;;;15.13;;
19032;SDS011;9649;51.042;13.804;2023-03-08T16:20:22;25.13;;;14.60;;
19032;SDS011;9649;51.042;13.804;2023-03-08T16:25:26;25.07;;;14.60;;
19032;SDS011;9649;51.042;13.804;2023-03-08T16:30:30;15.77;;;10.70;;
19032;SDS011;9649;51.042;13.804;2023-03-08T16:35:33;16.93;;;10.77;;
19032;SDS011;9649;51.042;13.804;2023-03-08T16:40:36;16.90;;;10.73;;
19032;SDS011;9649;51.042;13.804;2023-03-08T16:45:51;15.07;;;10.10;;
19032;SDS011;9649;51.042;13.804;2023-03-08T16:50:55;14.30;;;9.97;;
19032;SDS011;9649;51.042;13.804;2023-03-08T16:55:59;16.07;;;10.03;;
19032;SDS011;9649;51.042;13.804;2023-03-08T17:01:10;13.63;;;9.30;;
19032;SDS011;9649;51.042;13.804;2023-03-08T17:06:14;14.97;;;9.00;;
19032;SDS011;9649;51.042;13.804;2023-03-08T17:11:20;15.23;;;9.67;;
19032;SDS011;9649;51.042;13.804;2023-03-08T17:16:26;17.17;;;11.23;;
19032;SDS011;9649;51.042;13.804;2023-03-08T17:21:45;15.13;;;9.73;;
19032;SDS011;9649;51.042;13.804;2023-03-08T17:27:00;15.23;;;8.97;;
19032;SDS011;9649;51.042;13.804;2023-03-08T17:51:45;19.03;;;10.97;;
19032;SDS011;9649;51.042;13.804;2023-03-08T17:56:59;17.03;;;10.40;;
19032;SDS011;9649;51.042;13.804;2023-03-08T18:02:10;15.53;;;9.90;;
19032;SDS011;9649;51.042;13.804;2023-03-08T18:14:08;16.07;;;9.77;;
19032;SDS011;9649;51.042;13.804;2023-03-08T18:43:55;15.13;;;9.73;;
19032;SDS011;9649;51.042;13.804;2023-03-08T18:48:59;16.70;;;9.90;;
19032;SDS011;9649;51.042;13.804;2023-03-08T18:54:03;16.43;;;10.33;;
19032;SDS011;9649;51.042;13.804;2023-03-08T18:59:10;16.97;;;10.70;;
19032;SDS011;9649;51.042;13.804;2023-03-08T19:04:15;17.20;;;10.43;;
19032;SDS011;9649;51.042;13.804;2023-03-08T19:09:19;16.47;;;10.57;;
19032;SDS011;9649;51.042;13.804;2023-03-08T19:14:29;17.53;;;11.17;;
19032;SDS011;9649;51.042;13.804;2023-03-08T19:19:38;18.90;;;12.03;;
19032;SDS011;9649;51.042;13.804;2023-03-08T19:24:42;18.07;;;11.03;;
19032;SDS011;9649;51.042;13.804;2023-03-08T19:29:51;19.77;;;11.67;;
19032;SDS011;9649;51.042;13.804;2023-03-08T19:34:55;19.17;;;11.83;;
19032;SDS011;9649;51.042;13.804;2023-03-08T19:39:58;20.37;;;11.83;;
19032;SDS011;9649;51.042;13.804;2023-03-08T19:45:07;21.60;;;13.03;;
19032;SDS011;9649;51.042;13.804;2023-03-08T19:50:10;25.67;;;14.77;;
19032;SDS011;9649;51.042;13.804;2023-03-08T19:55:14;22.33;;;13.57;;
19032;SDS011;9649;51.042;13.804;2023-03-08T20:00:20;22.40;;;14.47;;
19032;SDS011;9649;51.042;13.804;2023-03-08T20:05:23;22.43;;;13.80;;
19032;SDS011;9649;51.042;13.804;2023-03-08T20:10:28;25.17;;;15.73;;
19032;SDS011;9649;51.042;13.804;2023-03-08T20:15:35;23.13;;;13.93;;
19032;SDS011;9649;51.042;13.804;2023-03-08T20:20:38;20.97;;;12.93;;
19032;SDS011;9649;51.042;13.804;2023-03-08T20:25:41;18.87;;;12.30;;
19032;SDS011;9649;51.042;13.804;2023-03-08T20:30:46;21.53;;;13.67;;
19032;SDS011;9649;51.042;13.804;2023-03-08T22:11:33;30.90;;;17.50;;
19032;SDS011;9649;51.042;13.804;2023-03-08T22:22:40;33.40;;;17.70;;
19032;SDS011;9649;51.042;13.804;2023-03-08T22:46:19;30.60;;;16.93;;
19032;SDS011;9649;51.042;13.804;2023-03-08T22:51:23;49.77;;;21.40;;
19032;SDS011;9649;51.042;13.804;2023-03-08T22:56:28;35.83;;;19.63;;
19032;SDS011;9649;51.042;13.804;2023-03-08T23:01:32;35.37;;;18.93;;
19032;SDS011;9649;51.042;13.804;2023-03-08T23:06:35;32.07;;;17.70;;
19032;SDS011;9649;51.042;13.804;2023-03-08T23:11:38;24.20;;;14.63;;
19032;SDS011;9649;51.042;13.804;2023-03-08T23:16:43;30.73;;;17.37;;
19032;SDS011;9649;51.042;13.804;2023-03-08T23:21:47;32.70;;;18.20;;
19032;SDS011;9649;51.042;13.804;2023-03-08T23:26:50;28.37;;;16.90;;
19032;SDS011;9649;51.042;13.804;2023-03-08T23:31:55;29.00;;;17.50;;
19032;SDS011;9649;51.042;13.804;2023-03-08T23:36:58;32.80;;;17.57;;
19032;SDS011;9649;51.042;13.804;2023-03-08T23:42:04;34.57;;;18.93;;
19032;SDS011;9649;51.042;13.804;2023-03-08T23:47:08;34.97;;;19.93;;
19032;SDS011;9649;51.042;13.804;2023-03-08T23:52:11;27.47;;;15.90;;
19032;SDS011;9649;51.042;13.804;2023-03-08T23:57:14;26.50;;;14.43;;
